sensor_id;sensor_type;location;lat;lon;timestamp;pressure;altitude;pressure_sealevel;temperature
19644;BMP180;9970;-36.854;174.870;2023-09-19T00:02:18;102367.00;;;18.90
19644;BMP180;9970;-36.854;174.870;2023-09-19T00:04:55;102361.00;;;19.00
19644;BMP180;9970;-36.854;174.870;2023-09-19T00:07:28;102366.00;;;19.00
19644;BMP180;9970;-36.854;174.870;2023-09-19T00:10:01;102364.00;;;19.00
19644;BMP180;9970;-36.854;174.870;2023-09-19T00:12:35;102370.00;;;19.10
19644;BMP180;9970;-36.854;174.870;2023-09-19T00:15:09;102367.00;;;19.10
19644;BMP180;9970;-36.854;174.870;2023-09-19T00:17:42;102372.00;;;19.20
19644;BMP180;9970;-36.854;174.870;2023-09-19T00:20:16;102368.00;;;19.20
19644;BMP180;9970;-36.854;174.870;2023-09-19T00:22:49;102364.00;;;19.30
19644;BMP180;9970;-36.854;174.870;2023-09-19T00:25:24;102368.00;;;19.30
19644;BMP180;9970;-36.854;174.870;2023-09-19T00:27:58;102365.00;;;19.30
19644;BMP180;9970;-36.854;174.870;2023-09-19T00:30:31;102370.00;;;19.30
19644;BMP180;9970;-36.854;174.870;2023-09-19T00:33:04;102357.00;;;19.40
19644;BMP180;9970;-36.854;174.870;2023-09-19T00:35:49;102363.00;;;19.40
19644;BMP180;9970;-36.854;174.870;2023-09-19T00:38:23;102360.00;;;19.40
19644;BMP180;9970;-36.854;174.870;2023-09-19T00:40:57;102359.00;;;19.50
19644;BMP180;9970;-36.854;174.870;2023-09-19T00:43:35;102348.00;;;19.50
19644;BMP180;9970;-36.854;174.870;2023-09-19T00:46:08;102358.00;;;19.50
19644;BMP180;9970;-36.854;174.870;2023-09-19T00:48:42;102337.00;;;19.50
19644;BMP180;9970;-36.854;174.870;2023-09-19T00:51:15;102341.00;;;19.50
19644;BMP180;9970;-36.854;174.870;2023-09-19T00:53:55;102340.00;;;19.50
19644;BMP180;9970;-36.854;174.870;2023-09-19T00:56:29;102333.00;;;19.50
19644;BMP180;9970;-36.854;174.870;2023-09-19T00:59:07;102332.00;;;19.60
19644;BMP180;9970;-36.854;174.870;2023-09-19T01:01:39;102324.00;;;19.60
19644;BMP180;9970;-36.854;174.870;2023-09-19T01:04:13;102328.00;;;19.60
19644;BMP180;9970;-36.854;174.870;2023-09-19T01:06:46;102322.00;;;19.50
19644;BMP180;9970;-36.854;174.870;2023-09-19T01:09:24;102320.00;;;19.50
19644;BMP180;9970;-36.854;174.870;2023-09-19T01:12:00;102321.00;;;19.50
19644;BMP180;9970;-36.854;174.870;2023-09-19T01:17:29;102321.00;;;19.50
19644;BMP180;9970;-36.854;174.870;2023-09-19T01:20:15;102315.00;;;19.50
19644;BMP180;9970;-36.854;174.870;2023-09-19T01:31:12;102317.00;;;19.50
19644;BMP180;9970;-36.854;174.870;2023-09-19T01:34:00;102302.00;;;19.50
19644;BMP180;9970;-36.854;174.870;2023-09-19T01:36:37;102313.00;;;19.50
19644;BMP180;9970;-36.854;174.870;2023-09-19T01:39:11;102304.00;;;19.50
19644;BMP180;9970;-36.854;174.870;2023-09-19T01:41:57;102304.00;;;19.50
19644;BMP180;9970;-36.854;174.870;2023-09-19T01:47:23;102291.00;;;19.40
19644;BMP180;9970;-36.854;174.870;2023-09-19T01:52:57;102277.00;;;19.40
19644;BMP180;9970;-36.854;174.870;2023-09-19T01:55:33;102267.00;;;19.40
19644;BMP180;9970;-36.854;174.870;2023-09-19T01:58:07;102270.00;;;19.30
19644;BMP180;9970;-36.854;174.870;2023-09-19T02:00:42;102269.00;;;19.30
19644;BMP180;9970;-36.854;174.870;2023-09-19T02:03:17;102266.00;;;19.30
19644;BMP180;9970;-36.854;174.870;2023-09-19T02:05:51;102274.00;;;19.30
19644;BMP180;9970;-36.854;174.870;2023-09-19T02:08:25;102262.00;;;19.30
19644;BMP180;9970;-36.854;174.870;2023-09-19T02:10:59;102266.00;;;19.30
19644;BMP180;9970;-36.854;174.870;2023-09-19T02:13:32;102266.00;;;19.30
19644;BMP180;9970;-36.854;174.870;2023-09-19T02:16:06;102269.00;;;19.30
19644;BMP180;9970;-36.854;174.870;2023-09-19T02:18:41;102269.00;;;19.30
19644;BMP180;9970;-36.854;174.870;2023-09-19T02:21:13;102263.00;;;19.30
19644;BMP180;9970;-36.854;174.870;2023-09-19T02:23:46;102279.00;;;19.30
19644;BMP180;9970;-36.854;174.870;2023-09-19T02:26:19;102272.00;;;19.30
19644;BMP180;9970;-36.854;174.870;2023-09-19T02:28:52;102272.00;;;19.30
19644;BMP180;9970;-36.854;174.870;2023-09-19T02:31:26;102269.00;;;19.30
19644;BMP180;9970;-36.854;174.870;2023-09-19T02:34:00;102273.00;;;19.30
19644;BMP180;9970;-36.854;174.870;2023-09-19T02:36:33;102286.00;;;19.30
19644;BMP180;9970;-36.854;174.870;2023-09-19T02:39:06;102291.00;;;19.30
19644;BMP180;9970;-36.854;174.870;2023-09-19T02:41:39;102281.00;;;19.30
19644;BMP180;9970;-36.854;174.870;2023-09-19T02:44:12;102289.00;;;19.30
19644;BMP180;9970;-36.854;174.870;2023-09-19T02:46:45;102297.00;;;19.20
19644;BMP180;9970;-36.854;174.870;2023-09-19T02:49:23;102292.00;;;19.20
19644;BMP180;9970;-36.854;174.870;2023-09-19T02:51:56;102294.00;;;19.20
19644;BMP180;9970;-36.854;174.870;2023-09-19T02:54:30;102296.00;;;19.10
19644;BMP180;9970;-36.854;174.870;2023-09-19T02:57:03;102286.00;;;19.10
19644;BMP180;9970;-36.854;174.870;2023-09-19T02:59:37;102292.00;;;19.10
19644;BMP180;9970;-36.854;174.870;2023-09-19T03:02:10;102290.00;;;19.00
19644;BMP180;9970;-36.854;174.870;2023-09-19T03:04:43;102282.00;;;19.00
19644;BMP180;9970;-36.854;174.870;2023-09-19T03:07:18;102281.00;;;19.00
19644;BMP180;9970;-36.854;174.870;2023-09-19T03:09:52;102287.00;;;18.90
19644;BMP180;9970;-36.854;174.870;2023-09-19T03:12:26;102281.00;;;18.90
19644;BMP180;9970;-36.854;174.870;2023-09-19T03:14:59;102282.00;;;18.90
19644;BMP180;9970;-36.854;174.870;2023-09-19T03:17:36;102291.00;;;18.90
19644;BMP180;9970;-36.854;174.870;2023-09-19T03:20:10;102280.00;;;18.80
19644;BMP180;9970;-36.854;174.870;2023-09-19T03:22:44;102279.00;;;18.80
19644;BMP180;9970;-36.854;174.870;2023-09-19T03:25:17;102273.00;;;18.70
19644;BMP180;9970;-36.854;174.870;2023-09-19T03:27:51;102264.00;;;18.70
19644;BMP180;9970;-36.854;174.870;2023-09-19T03:30:24;102267.00;;;18.60
19644;BMP180;9970;-36.854;174.870;2023-09-19T03:32:57;102266.00;;;18.60
19644;BMP180;9970;-36.854;174.870;2023-09-19T03:35:31;102273.00;;;18.60
19644;BMP180;9970;-36.854;174.870;2023-09-19T03:38:04;102270.00;;;18.50
19644;BMP180;9970;-36.854;174.870;2023-09-19T03:40:37;102272.00;;;18.50
19644;BMP180;9970;-36.854;174.870;2023-09-19T03:43:10;102271.00;;;18.50
19644;BMP180;9970;-36.854;174.870;2023-09-19T03:45:43;102272.00;;;18.50
19644;BMP180;9970;-36.854;174.870;2023-09-19T03:48:17;102276.00;;;18.50
19644;BMP180;9970;-36.854;174.870;2023-09-19T03:50:50;102281.00;;;18.40
19644;BMP180;9970;-36.854;174.870;2023-09-19T03:53:25;102280.00;;;18.40
19644;BMP180;9970;-36.854;174.870;2023-09-19T03:55:58;102284.00;;;18.40
19644;BMP180;9970;-36.854;174.870;2023-09-19T03:58:31;102276.00;;;18.30
19644;BMP180;9970;-36.854;174.870;2023-09-19T04:01:05;102285.00;;;18.30
19644;BMP180;9970;-36.854;174.870;2023-09-19T04:03:38;102281.00;;;18.30
19644;BMP180;9970;-36.854;174.870;2023-09-19T04:06:22;102282.00;;;18.30
19644;BMP180;9970;-36.854;174.870;2023-09-19T04:08:58;102279.00;;;18.30
19644;BMP180;9970;-36.854;174.870;2023-09-19T04:11:32;102280.00;;;18.30
19644;BMP180;9970;-36.854;174.870;2023-09-19T04:14:07;102277.00;;;18.30
19644;BMP180;9970;-36.854;174.870;2023-09-19T04:16:40;102277.00;;;18.20
19644;BMP180;9970;-36.854;174.870;2023-09-19T04:19:13;102286.00;;;18.30
19644;BMP180;9970;-36.854;174.870;2023-09-19T04:21:46;102289.00;;;18.20
19644;BMP180;9970;-36.854;174.870;2023-09-19T04:24:21;102298.00;;;18.20
19644;BMP180;9970;-36.854;174.870;2023-09-19T04:26:53;102289.00;;;18.20
19644;BMP180;9970;-36.854;174.870;2023-09-19T04:29:27;102298.00;;;18.20
19644;BMP180;9970;-36.854;174.870;2023-09-19T04:32:01;102291.00;;;18.20
19644;BMP180;9970;-36.854;174.870;2023-09-19T04:34:35;102291.00;;;18.20
19644;BMP180;9970;-36.854;174.870;2023-09-19T04:37:09;102300.00;;;18.20
19644;BMP180;9970;-36.854;174.870;2023-09-19T04:39:42;102299.00;;;18.20
19644;BMP180;9970;-36.854;174.870;2023-09-19T04:42:17;102303.00;;;18.20
19644;BMP180;9970;-36.854;174.870;2023-09-19T04:44:51;102312.00;;;18.10
19644;BMP180;9970;-36.854;174.870;2023-09-19T04:47:24;102313.00;;;18.10
19644;BMP180;9970;-36.854;174.870;2023-09-19T04:49:57;102303.00;;;18.10
19644;BMP180;9970;-36.854;174.870;2023-09-19T04:52:31;102312.00;;;18.10
19644;BMP180;9970;-36.854;174.870;2023-09-19T04:55:05;102306.00;;;18.10
19644;BMP180;9970;-36.854;174.870;2023-09-19T04:57:38;102310.00;;;18.10
19644;BMP180;9970;-36.854;174.870;2023-09-19T05:00:14;102307.00;;;18.10
19644;BMP180;9970;-36.854;174.870;2023-09-19T05:02:56;102303.00;;;18.10
19644;BMP180;9970;-36.854;174.870;2023-09-19T05:05:23;102296.00;;;18.10
19644;BMP180;9970;-36.854;174.870;2023-09-19T05:07:57;102310.00;;;18.10
19644;BMP180;9970;-36.854;174.870;2023-09-19T05:10:35;102307.00;;;18.10
19644;BMP180;9970;-36.854;174.870;2023-09-19T05:13:12;102307.00;;;18.00
19644;BMP180;9970;-36.854;174.870;2023-09-19T05:15:45;102306.00;;;18.00
19644;BMP180;9970;-36.854;174.870;2023-09-19T05:18:22;102307.00;;;18.00
19644;BMP180;9970;-36.854;174.870;2023-09-19T05:20:55;102310.00;;;18.00
19644;BMP180;9970;-36.854;174.870;2023-09-19T05:23:28;102305.00;;;18.00
19644;BMP180;9970;-36.854;174.870;2023-09-19T05:26:01;102307.00;;;18.00
19644;BMP180;9970;-36.854;174.870;2023-09-19T05:28:35;102317.00;;;18.00
19644;BMP180;9970;-36.854;174.870;2023-09-19T05:31:09;102316.00;;;17.90
19644;BMP180;9970;-36.854;174.870;2023-09-19T05:33:42;102310.00;;;17.90
19644;BMP180;9970;-36.854;174.870;2023-09-19T05:36:15;102306.00;;;17.90
19644;BMP180;9970;-36.854;174.870;2023-09-19T05:38:48;102312.00;;;17.90
19644;BMP180;9970;-36.854;174.870;2023-09-19T05:41:23;102314.00;;;17.80
19644;BMP180;9970;-36.854;174.870;2023-09-19T05:43:56;102312.00;;;17.80
19644;BMP180;9970;-36.854;174.870;2023-09-19T05:46:32;102320.00;;;17.80
19644;BMP180;9970;-36.854;174.870;2023-09-19T05:49:05;102321.00;;;17.70
19644;BMP180;9970;-36.854;174.870;2023-09-19T05:51:38;102318.00;;;17.70
19644;BMP180;9970;-36.854;174.870;2023-09-19T05:54:11;102323.00;;;17.70
19644;BMP180;9970;-36.854;174.870;2023-09-19T05:56:44;102331.00;;;17.60
19644;BMP180;9970;-36.854;174.870;2023-09-19T05:59:18;102325.00;;;17.60
19644;BMP180;9970;-36.854;174.870;2023-09-19T06:01:51;102328.00;;;17.60
19644;BMP180;9970;-36.854;174.870;2023-09-19T06:04:24;102332.00;;;17.50
19644;BMP180;9970;-36.854;174.870;2023-09-19T06:06:57;102335.00;;;17.50
19644;BMP180;9970;-36.854;174.870;2023-09-19T06:09:31;102337.00;;;17.50
19644;BMP180;9970;-36.854;174.870;2023-09-19T06:12:05;102340.00;;;17.50
19644;BMP180;9970;-36.854;174.870;2023-09-19T06:14:39;102350.00;;;17.50
19644;BMP180;9970;-36.854;174.870;2023-09-19T06:17:11;102350.00;;;17.40
19644;BMP180;9970;-36.854;174.870;2023-09-19T06:19:45;102354.00;;;17.40
19644;BMP180;9970;-36.854;174.870;2023-09-19T06:22:18;102356.00;;;17.40
19644;BMP180;9970;-36.854;174.870;2023-09-19T06:24:51;102358.00;;;17.30
19644;BMP180;9970;-36.854;174.870;2023-09-19T06:27:24;102354.00;;;17.30
19644;BMP180;9970;-36.854;174.870;2023-09-19T06:29:58;102364.00;;;17.30
19644;BMP180;9970;-36.854;174.870;2023-09-19T06:32:32;102369.00;;;17.20
19644;BMP180;9970;-36.854;174.870;2023-09-19T06:35:06;102368.00;;;17.20
19644;BMP180;9970;-36.854;174.870;2023-09-19T06:37:40;102381.00;;;17.20
19644;BMP180;9970;-36.854;174.870;2023-09-19T06:40:14;102386.00;;;17.10
19644;BMP180;9970;-36.854;174.870;2023-09-19T06:42:49;102375.00;;;17.10
19644;BMP180;9970;-36.854;174.870;2023-09-19T06:45:22;102378.00;;;17.00
19644;BMP180;9970;-36.854;174.870;2023-09-19T06:47:56;102381.00;;;17.00
19644;BMP180;9970;-36.854;174.870;2023-09-19T06:50:31;102375.00;;;17.00
19644;BMP180;9970;-36.854;174.870;2023-09-19T06:53:05;102386.00;;;17.00
19644;BMP180;9970;-36.854;174.870;2023-09-19T06:55:38;102392.00;;;16.90
19644;BMP180;9970;-36.854;174.870;2023-09-19T06:58:11;102391.00;;;16.90
19644;BMP180;9970;-36.854;174.870;2023-09-19T07:00:44;102395.00;;;16.90
19644;BMP180;9970;-36.854;174.870;2023-09-19T07:03:17;102406.00;;;16.90
19644;BMP180;9970;-36.854;174.870;2023-09-19T07:05:51;102406.00;;;16.80
19644;BMP180;9970;-36.854;174.870;2023-09-19T07:08:24;102407.00;;;16.80
19644;BMP180;9970;-36.854;174.870;2023-09-19T07:10:57;102409.00;;;16.80
19644;BMP180;9970;-36.854;174.870;2023-09-19T07:13:31;102419.00;;;16.80
19644;BMP180;9970;-36.854;174.870;2023-09-19T07:16:04;102410.00;;;16.80
19644;BMP180;9970;-36.854;174.870;2023-09-19T07:18:37;102410.00;;;16.80
19644;BMP180;9970;-36.854;174.870;2023-09-19T07:21:10;102405.00;;;16.70
19644;BMP180;9970;-36.854;174.870;2023-09-19T07:23:44;102414.00;;;16.70
19644;BMP180;9970;-36.854;174.870;2023-09-19T07:26:19;102422.00;;;16.70
19644;BMP180;9970;-36.854;174.870;2023-09-19T07:28:52;102419.00;;;16.70
19644;BMP180;9970;-36.854;174.870;2023-09-19T07:31:28;102416.00;;;16.70
19644;BMP180;9970;-36.854;174.870;2023-09-19T07:34:02;102415.00;;;16.70
19644;BMP180;9970;-36.854;174.870;2023-09-19T07:36:36;102420.00;;;16.70
19644;BMP180;9970;-36.854;174.870;2023-09-19T07:39:10;102417.00;;;16.70
19644;BMP180;9970;-36.854;174.870;2023-09-19T07:41:44;102414.00;;;16.60
19644;BMP180;9970;-36.854;174.870;2023-09-19T07:44:18;102413.00;;;16.60
19644;BMP180;9970;-36.854;174.870;2023-09-19T07:46:51;102414.00;;;16.60
19644;BMP180;9970;-36.854;174.870;2023-09-19T07:49:25;102412.00;;;16.60
19644;BMP180;9970;-36.854;174.870;2023-09-19T07:51:58;102425.00;;;16.60
19644;BMP180;9970;-36.854;174.870;2023-09-19T07:54:32;102430.00;;;16.60
19644;BMP180;9970;-36.854;174.870;2023-09-19T07:57:06;102432.00;;;16.50
19644;BMP180;9970;-36.854;174.870;2023-09-19T07:59:39;102427.00;;;16.50
19644;BMP180;9970;-36.854;174.870;2023-09-19T08:02:13;102438.00;;;16.50
19644;BMP180;9970;-36.854;174.870;2023-09-19T08:04:49;102438.00;;;16.50
19644;BMP180;9970;-36.854;174.870;2023-09-19T08:07:23;102441.00;;;16.50
19644;BMP180;9970;-36.854;174.870;2023-09-19T08:09:56;102442.00;;;16.40
19644;BMP180;9970;-36.854;174.870;2023-09-19T08:12:30;102449.00;;;16.40
19644;BMP180;9970;-36.854;174.870;2023-09-19T08:15:04;102450.00;;;16.40
19644;BMP180;9970;-36.854;174.870;2023-09-19T08:17:37;102450.00;;;16.40
19644;BMP180;9970;-36.854;174.870;2023-09-19T08:20:11;102454.00;;;16.40
19644;BMP180;9970;-36.854;174.870;2023-09-19T08:22:54;102452.00;;;16.40
19644;BMP180;9970;-36.854;174.870;2023-09-19T08:25:28;102446.00;;;16.30
19644;BMP180;9970;-36.854;174.870;2023-09-19T08:28:01;102454.00;;;16.30
19644;BMP180;9970;-36.854;174.870;2023-09-19T08:30:35;102458.00;;;16.30
19644;BMP180;9970;-36.854;174.870;2023-09-19T08:33:09;102455.00;;;16.30
19644;BMP180;9970;-36.854;174.870;2023-09-19T08:35:42;102454.00;;;16.20
19644;BMP180;9970;-36.854;174.870;2023-09-19T08:38:16;102453.00;;;16.20
19644;BMP180;9970;-36.854;174.870;2023-09-19T08:40:49;102451.00;;;16.20
19644;BMP180;9970;-36.854;174.870;2023-09-19T08:43:23;102452.00;;;16.20
19644;BMP180;9970;-36.854;174.870;2023-09-19T08:48:54;102454.00;;;16.20
19644;BMP180;9970;-36.854;174.870;2023-09-19T08:51:39;102444.00;;;16.10
19644;BMP180;9970;-36.854;174.870;2023-09-19T08:54:07;102464.00;;;16.10
19644;BMP180;9970;-36.854;174.870;2023-09-19T08:56:42;102456.00;;;16.10
19644;BMP180;9970;-36.854;174.870;2023-09-19T08:59:15;102455.00;;;16.10
19644;BMP180;9970;-36.854;174.870;2023-09-19T09:01:53;102453.00;;;16.10
19644;BMP180;9970;-36.854;174.870;2023-09-19T09:04:34;102459.00;;;16.10
19644;BMP180;9970;-36.854;174.870;2023-09-19T09:07:11;102453.00;;;16.10
19644;BMP180;9970;-36.854;174.870;2023-09-19T09:09:44;102463.00;;;16.10
19644;BMP180;9970;-36.854;174.870;2023-09-19T09:12:17;102458.00;;;16.00
19644;BMP180;9970;-36.854;174.870;2023-09-19T09:14:50;102453.00;;;16.00
19644;BMP180;9970;-36.854;174.870;2023-09-19T09:17:23;102444.00;;;16.00
19644;BMP180;9970;-36.854;174.870;2023-09-19T09:19:57;102449.00;;;15.90
19644;BMP180;9970;-36.854;174.870;2023-09-19T09:22:30;102447.00;;;15.90
19644;BMP180;9970;-36.854;174.870;2023-09-19T09:25:03;102454.00;;;15.90
19644;BMP180;9970;-36.854;174.870;2023-09-19T09:27:37;102451.00;;;15.90
19644;BMP180;9970;-36.854;174.870;2023-09-19T09:30:17;102453.00;;;15.90
19644;BMP180;9970;-36.854;174.870;2023-09-19T09:32:46;102455.00;;;15.90
19644;BMP180;9970;-36.854;174.870;2023-09-19T09:35:20;102441.00;;;15.80
19644;BMP180;9970;-36.854;174.870;2023-09-19T09:37:59;102431.00;;;15.80
19644;BMP180;9970;-36.854;174.870;2023-09-19T09:40:36;102438.00;;;15.80
19644;BMP180;9970;-36.854;174.870;2023-09-19T09:43:11;102436.00;;;15.80
19644;BMP180;9970;-36.854;174.870;2023-09-19T09:45:40;102419.00;;;15.80
19644;BMP180;9970;-36.854;174.870;2023-09-19T09:48:14;102407.00;;;15.80
19644;BMP180;9970;-36.854;174.870;2023-09-19T09:50:49;102410.00;;;15.70
19644;BMP180;9970;-36.854;174.870;2023-09-19T09:53:30;102419.00;;;15.70
19644;BMP180;9970;-36.854;174.870;2023-09-19T09:56:08;102429.00;;;15.70
19644;BMP180;9970;-36.854;174.870;2023-09-19T09:58:51;102419.00;;;15.70
19644;BMP180;9970;-36.854;174.870;2023-09-19T10:01:26;102422.00;;;15.70
19644;BMP180;9970;-36.854;174.870;2023-09-19T10:04:00;102412.00;;;15.70
19644;BMP180;9970;-36.854;174.870;2023-09-19T10:06:40;102418.00;;;15.70
19644;BMP180;9970;-36.854;174.870;2023-09-19T10:09:09;102431.00;;;15.70
19644;BMP180;9970;-36.854;174.870;2023-09-19T10:12:00;102431.00;;;15.70
19644;BMP180;9970;-36.854;174.870;2023-09-19T10:14:26;102437.00;;;15.60
19644;BMP180;9970;-36.854;174.870;2023-09-19T10:17:03;102432.00;;;15.60
19644;BMP180;9970;-36.854;174.870;2023-09-19T10:19:50;102446.00;;;15.60
19644;BMP180;9970;-36.854;174.870;2023-09-19T10:22:21;102437.00;;;15.50
19644;BMP180;9970;-36.854;174.870;2023-09-19T10:24:55;102439.00;;;15.50
19644;BMP180;9970;-36.854;174.870;2023-09-19T10:27:30;102436.00;;;15.50
19644;BMP180;9970;-36.854;174.870;2023-09-19T10:30:06;102444.00;;;15.50
19644;BMP180;9970;-36.854;174.870;2023-09-19T10:32:41;102442.00;;;15.40
19644;BMP180;9970;-36.854;174.870;2023-09-19T10:35:14;102425.00;;;15.40
19644;BMP180;9970;-36.854;174.870;2023-09-19T10:37:48;102426.00;;;15.40
19644;BMP180;9970;-36.854;174.870;2023-09-19T10:40:23;102424.00;;;15.30
19644;BMP180;9970;-36.854;174.870;2023-09-19T10:43:05;102431.00;;;15.30
19644;BMP180;9970;-36.854;174.870;2023-09-19T10:45:39;102416.00;;;15.30
19644;BMP180;9970;-36.854;174.870;2023-09-19T10:48:12;102420.00;;;15.20
19644;BMP180;9970;-36.854;174.870;2023-09-19T10:50:48;102425.00;;;15.20
19644;BMP180;9970;-36.854;174.870;2023-09-19T10:53:21;102417.00;;;15.20
19644;BMP180;9970;-36.854;174.870;2023-09-19T10:55:58;102415.00;;;15.20
19644;BMP180;9970;-36.854;174.870;2023-09-19T10:58:33;102416.00;;;15.20
19644;BMP180;9970;-36.854;174.870;2023-09-19T11:01:07;102406.00;;;15.20
19644;BMP180;9970;-36.854;174.870;2023-09-19T11:03:48;102407.00;;;15.20
19644;BMP180;9970;-36.854;174.870;2023-09-19T11:06:24;102409.00;;;15.20
19644;BMP180;9970;-36.854;174.870;2023-09-19T11:08:58;102409.00;;;15.20
19644;BMP180;9970;-36.854;174.870;2023-09-19T11:11:45;102416.00;;;15.10
19644;BMP180;9970;-36.854;174.870;2023-09-19T11:30:47;102419.00;;;15.10
19644;BMP180;9970;-36.854;174.870;2023-09-19T11:33:21;102415.00;;;15.10
19644;BMP180;9970;-36.854;174.870;2023-09-19T11:36:09;102414.00;;;15.10
19644;BMP180;9970;-36.854;174.870;2023-09-19T11:46:54;102402.00;;;15.10
19644;BMP180;9970;-36.854;174.870;2023-09-19T11:49:30;102413.00;;;15.10
19644;BMP180;9970;-36.854;174.870;2023-09-19T11:52:04;102403.00;;;15.00
19644;BMP180;9970;-36.854;174.870;2023-09-19T11:54:39;102402.00;;;15.00
19644;BMP180;9970;-36.854;174.870;2023-09-19T11:57:13;102403.00;;;15.00
19644;BMP180;9970;-36.854;174.870;2023-09-19T11:59:48;102401.00;;;15.00
19644;BMP180;9970;-36.854;174.870;2023-09-19T12:02:38;102389.00;;;14.90
19644;BMP180;9970;-36.854;174.870;2023-09-19T12:05:05;102401.00;;;14.90
19644;BMP180;9970;-36.854;174.870;2023-09-19T12:07:46;102403.00;;;14.90
19644;BMP180;9970;-36.854;174.870;2023-09-19T12:10:19;102404.00;;;14.90
19644;BMP180;9970;-36.854;174.870;2023-09-19T12:12:54;102407.00;;;14.80
19644;BMP180;9970;-36.854;174.870;2023-09-19T12:15:28;102397.00;;;14.70
19644;BMP180;9970;-36.854;174.870;2023-09-19T12:18:03;102409.00;;;14.70
19644;BMP180;9970;-36.854;174.870;2023-09-19T12:20:46;102409.00;;;14.70
19644;BMP180;9970;-36.854;174.870;2023-09-19T12:23:19;102413.00;;;14.70
19644;BMP180;9970;-36.854;174.870;2023-09-19T12:25:52;102410.00;;;14.70
19644;BMP180;9970;-36.854;174.870;2023-09-19T12:28:28;102412.00;;;14.60
19644;BMP180;9970;-36.854;174.870;2023-09-19T12:31:08;102413.00;;;14.70
19644;BMP180;9970;-36.854;174.870;2023-09-19T12:33:43;102415.00;;;14.60
19644;BMP180;9970;-36.854;174.870;2023-09-19T12:36:25;102415.00;;;14.60
19644;BMP180;9970;-36.854;174.870;2023-09-19T12:38:59;102410.00;;;14.60
19644;BMP180;9970;-36.854;174.870;2023-09-19T12:41:34;102406.00;;;14.60
19644;BMP180;9970;-36.854;174.870;2023-09-19T12:44:07;102420.00;;;14.60
19644;BMP180;9970;-36.854;174.870;2023-09-19T12:46:40;102425.00;;;14.60
19644;BMP180;9970;-36.854;174.870;2023-09-19T12:49:18;102427.00;;;14.60
19644;BMP180;9970;-36.854;174.870;2023-09-19T12:51:54;102430.00;;;14.60
19644;BMP180;9970;-36.854;174.870;2023-09-19T12:54:37;102431.00;;;14.60
19644;BMP180;9970;-36.854;174.870;2023-09-19T12:57:01;102429.00;;;14.60
19644;BMP180;9970;-36.854;174.870;2023-09-19T12:59:34;102433.00;;;14.50
19644;BMP180;9970;-36.854;174.870;2023-09-19T13:02:08;102445.00;;;14.50
19644;BMP180;9970;-36.854;174.870;2023-09-19T13:04:51;102436.00;;;14.50
19644;BMP180;9970;-36.854;174.870;2023-09-19T13:07:44;102428.00;;;14.50
19644;BMP180;9970;-36.854;174.870;2023-09-19T13:10:18;102430.00;;;14.40
19644;BMP180;9970;-36.854;174.870;2023-09-19T13:12:52;102423.00;;;14.40
19644;BMP180;9970;-36.854;174.870;2023-09-19T13:15:26;102425.00;;;14.40
19644;BMP180;9970;-36.854;174.870;2023-09-19T13:18:00;102425.00;;;14.40
19644;BMP180;9970;-36.854;174.870;2023-09-19T13:20:36;102425.00;;;14.40
19644;BMP180;9970;-36.854;174.870;2023-09-19T13:23:25;102424.00;;;14.40
19644;BMP180;9970;-36.854;174.870;2023-09-19T13:25:45;102427.00;;;14.30
19644;BMP180;9970;-36.854;174.870;2023-09-19T13:28:20;102422.00;;;14.30
19644;BMP180;9970;-36.854;174.870;2023-09-19T13:30:53;102420.00;;;14.30
19644;BMP180;9970;-36.854;174.870;2023-09-19T13:33:26;102426.00;;;14.30
19644;BMP180;9970;-36.854;174.870;2023-09-19T13:36:00;102431.00;;;14.30
19644;BMP180;9970;-36.854;174.870;2023-09-19T13:38:33;102422.00;;;14.30
19644;BMP180;9970;-36.854;174.870;2023-09-19T13:41:06;102432.00;;;14.30
19644;BMP180;9970;-36.854;174.870;2023-09-19T13:43:39;102429.00;;;14.30
19644;BMP180;9970;-36.854;174.870;2023-09-19T13:46:12;102432.00;;;14.30
19644;BMP180;9970;-36.854;174.870;2023-09-19T13:48:46;102432.00;;;14.20
19644;BMP180;9970;-36.854;174.870;2023-09-19T13:51:23;102425.00;;;14.20
19644;BMP180;9970;-36.854;174.870;2023-09-19T13:53:57;102434.00;;;14.20
19644;BMP180;9970;-36.854;174.870;2023-09-19T13:56:30;102421.00;;;14.30
19644;BMP180;9970;-36.854;174.870;2023-09-19T13:59:04;102422.00;;;14.30
19644;BMP180;9970;-36.854;174.870;2023-09-19T14:01:37;102417.00;;;14.30
19644;BMP180;9970;-36.854;174.870;2023-09-19T14:04:10;102423.00;;;14.30
19644;BMP180;9970;-36.854;174.870;2023-09-19T14:06:44;102422.00;;;14.40
19644;BMP180;9970;-36.854;174.870;2023-09-19T14:09:17;102418.00;;;14.40
19644;BMP180;9970;-36.854;174.870;2023-09-19T14:11:51;102419.00;;;14.40
19644;BMP180;9970;-36.854;174.870;2023-09-19T14:14:25;102415.00;;;14.40
19644;BMP180;9970;-36.854;174.870;2023-09-19T14:16:57;102416.00;;;14.40
19644;BMP180;9970;-36.854;174.870;2023-09-19T14:19:32;102411.00;;;14.40
19644;BMP180;9970;-36.854;174.870;2023-09-19T14:22:06;102407.00;;;14.40
19644;BMP180;9970;-36.854;174.870;2023-09-19T14:24:39;102404.00;;;14.40
19644;BMP180;9970;-36.854;174.870;2023-09-19T14:27:12;102404.00;;;14.40
19644;BMP180;9970;-36.854;174.870;2023-09-19T14:29:45;102401.00;;;14.40
19644;BMP180;9970;-36.854;174.870;2023-09-19T14:32:18;102400.00;;;14.30
19644;BMP180;9970;-36.854;174.870;2023-09-19T14:34:51;102399.00;;;14.30
19644;BMP180;9970;-36.854;174.870;2023-09-19T14:37:24;102392.00;;;14.30
19644;BMP180;9970;-36.854;174.870;2023-09-19T14:39:58;102390.00;;;14.30
19644;BMP180;9970;-36.854;174.870;2023-09-19T14:42:31;102390.00;;;14.30
19644;BMP180;9970;-36.854;174.870;2023-09-19T14:45:06;102390.00;;;14.20
19644;BMP180;9970;-36.854;174.870;2023-09-19T14:47:40;102391.00;;;14.20
19644;BMP180;9970;-36.854;174.870;2023-09-19T14:50:13;102393.00;;;14.20
19644;BMP180;9970;-36.854;174.870;2023-09-19T14:52:47;102387.00;;;14.20
19644;BMP180;9970;-36.854;174.870;2023-09-19T14:55:21;102373.00;;;14.30
19644;BMP180;9970;-36.854;174.870;2023-09-19T14:57:54;102370.00;;;14.30